Flight Track Log - Related Links

Times and Time Zones

All times are in EDT time to prevent confusion due to time zone crossing. See the EGF2785 flight status page for this flight to view local times or setup timezone preferences in your user account.

Time Position Orientation Groundspeed Altitude Reporting Facility
EDT Latitude Longitude Course Direction KTS MPH feet Rate Location/Type
Sat 07:22:11 PM 42.8497 -85.6253 245° Southwest 196 226 4,700  Level Chicago Center
Sat 07:23:00 PM 42.7717 -85.7990 249° West  Level FlightAware Approximate
Sat 07:23:13 PM 42.8108 -85.7247 242° Southwest 243 280 8,500  Level Chicago Center
Sat 07:24:00 PM 42.7344 -85.8856 248° West  Level FlightAware Approximate
Sat 07:24:15 PM 42.7775 -85.8131 243° Southwest 257 296 11,000  Level Chicago Center
Sat 07:25:00 PM 42.7056 -85.9814 248° West  Level FlightAware Approximate
Sat 07:25:17 PM 42.7378 -85.9136 242° Southwest 294 338 12,500  Level Chicago Center
Sat 07:26:00 PM 42.6773 -86.0772 253° West  Level FlightAware Approximate
Sat 07:26:18 PM 42.6936 -86.0306 243° Southwest 339 390 13,500  Level Chicago Center
Sat 07:27:20 PM 42.6625 -86.1644 253° West 369 425 14,800 1,210 Climbing Chicago Center
Sat 07:28:22 PM 42.6400 -86.2992 257° West 367 422 16,000 629 Climbing Chicago Center
Sat 07:29:24 PM 42.6131 -86.4358 255° West 375 432 16,100 48 Climbing Chicago Center
Sat 07:30:26 PM 42.5878 -86.5725 256° West 373 429 16,100 -195 Level Chicago Center
Sat 07:31:27 PM 42.5619 -86.7103 256° West 376 433 15,700 -1,366 Descending Chicago Center
Sat 07:32:29 PM 42.5231 -86.8644 251° West 365 420 13,300 -2,177 Descending Chicago Center
Sat 07:33:31 PM 42.4872 -86.9883 249° West 356 410 11,200 -1,597 Descending Chicago Center
Sat 07:34:33 PM 42.4564 -87.1017 250° West 327 376 10,000 -1,016 Descending Chicago Center
Sat 07:35:35 PM 42.4308 -87.1964 250° West 272 313 9,100 -1,171 Descending Chicago Center
Sat 07:36:36 PM 42.4067 -87.2883 250° West 263 303 7,600 -1,415 Descending Chicago Center
Sat 07:37:38 PM 42.3819 -87.3736 249° West 247 284 6,200 -726 Descending Chicago Center
Sat 07:38:40 PM 42.3356 -87.4581 233° Southwest 274 315 6,100 -97 Descending Chicago Center
Sat 07:39:42 PM 42.2592 -87.4750 189° South 274 315 6,000 -435 Descending Chicago Center
Sat 07:40:44 PM 42.1856 -87.4933 190° South 270 311 5,200 -677 Descending Chicago Center
Sat 07:41:46 PM 42.1203 -87.5300 203° Southwest 254 292 4,600 -629 Descending Chicago Center
Sat 07:42:48 PM 42.0508 -87.5939 214° Southwest 254 292 3,900 -774 Descending Chicago Center
Sat 07:43:50 PM 42.0306 -87.6797 252° West 246 283 3,000 -726 Descending Chicago Center
Sat 07:44:52 PM 42.0122 -87.7636 254° West 242 278 2,400 -677 Descending Chicago Center
Sat 07:45:54 PM 42.0017 -87.8372 259° West 216 249 1,600 -718 Descending Chicago Center
Sat 07:46:49 PM 42.0000 -87.8833 267° West 122 140 1,000 -655 Descending Chicago TRACON

Login

Don't have an account? Register now (free) for customized features, flight alerts, and more!